Time;durP1;ratioP1;P1;durP2;ratioP2;P2;SDS_P1;SDS_P2;PMS_P1;PMS_P2;Temp;Humidity;BMP_temperature;BMP_pressure;BME280_temperature;BME280_humidity;BME280_pressure;Samples;Min_cycle;Max_cycle;Signal;HPM_P1;HPM_P2
2022/12/08 00:01:11;;;;;;;7.18;4.35;;;;;;;-5.61;85.38;100118.75;10635521;27;20047;-75
2022/12/08 00:11:44;;;;;;;12.95;3.67;;;;;;;-5.63;85.49;100118.94;10616771;27;20038;-77
2022/12/08 00:16:46;;;;;;;3.80;2.45;;;;;;;-5.53;85.29;100113.31;10609485;27;20046;-79
2022/12/08 00:21:48;;;;;;;9.98;5.15;;;;;;;-5.52;85.03;100117.63;10608513;27;20490;-77
2022/12/08 00:26:51;;;;;;;6.50;3.55;;;;;;;-5.53;85.23;100095.44;10565189;27;20047;-74
2022/12/08 00:31:53;;;;;;;8.48;3.40;;;;;;;-5.55;84.81;100086.78;10588833;27;20051;-74
2022/12/08 00:36:55;;;;;;;9.27;3.85;;;;;;;-5.52;84.84;100094.41;10620543;27;20418;-75
2022/12/08 00:42:12;;;;;;;10.07;4.30;;;;;;;-5.45;84.87;100091.78;10627471;27;20035;-74
2022/12/08 00:47:14;;;;;;;10.82;5.00;;;;;;;-5.40;84.89;100094.72;10600252;28;20432;-77
2022/12/08 00:52:17;;;;;;;10.90;5.57;;;;;;;-5.40;85.01;100089.38;10605490;28;20113;-77
2022/12/08 00:57:19;;;;;;;5.43;2.97;;;;;;;-5.40;85.00;100091.22;10618336;27;20055;-76
2022/12/08 01:02:21;;;;;;;6.93;3.35;;;;;;;-5.37;85.29;100099.69;10633596;27;20035;-76
2022/12/08 01:07:23;;;;;;;8.15;3.80;;;;;;;-5.33;85.49;100078.75;10606597;27;20426;-75
2022/12/08 01:12:28;;;;;;;4.88;2.30;;;;;;;-5.34;85.46;100088.63;10603883;27;20038;-75
2022/12/08 01:17:59;;;;;;;7.32;4.20;;;;;;;-5.33;85.18;100079.56;10654173;27;20061;-75
2022/12/08 01:23:01;;;;;;;9.02;4.85;;;;;;;-5.24;84.83;100086.44;10635785;27;20082;-75
2022/12/08 01:28:04;;;;;;;9.05;4.07;;;;;;;-5.27;84.71;100068.09;10596527;28;20043;-76
2022/12/08 01:33:10;;;;;;;8.30;3.95;;;;;;;-5.27;84.75;100065.44;10573999;28;20055;-76
2022/12/08 01:38:12;;;;;;;6.88;3.47;;;;;;;-5.25;85.17;100051.88;10631154;28;20051;-76
2022/12/08 01:43:16;;;;;;;10.35;5.55;;;;;;;-5.26;85.25;100064.41;10651883;27;20046;-76
2022/12/08 01:48:25;;;;;;;7.22;3.80;;;;;;;-5.26;85.36;100059.06;10633865;27;20414;-76
2022/12/08 01:53:31;;;;;;;7.25;3.70;;;;;;;-5.26;85.23;100058.22;10603324;28;20533;-76
2022/12/08 01:58:41;;;;;;;5.10;3.38;;;;;;;-5.27;85.80;100054.72;10602747;27;20031;-76
2022/12/08 02:04:08;;;;;;;7.47;4.13;;;;;;;-5.27;86.28;100059.25;10641318;27;20048;-76
2022/12/08 02:09:11;;;;;;;9.65;5.22;;;;;;;-5.24;86.23;100059.69;10658563;27;20035;-77
2022/12/08 02:14:14;;;;;;;9.10;5.78;;;;;;;-5.25;86.32;100066.06;10628907;27;20040;-76
2022/12/08 02:20:00;;;;;;;9.85;5.57;;;;;;;-5.25;86.67;100050.00;10645678;27;20035;-77
2022/12/08 02:25:30;;;;;;;9.38;5.68;;;;;;;-5.25;86.94;100049.19;10632934;27;20054;-76
2022/12/08 02:31:10;;;;;;;10.15;5.43;;;;;;;-5.22;86.26;100038.94;10604368;27;20080;-77
2022/12/08 02:36:31;;;;;;;10.65;4.70;;;;;;;-5.16;86.55;100043.53;10622548;27;20410;-76
2022/12/08 02:42:07;;;;;;;10.07;5.40;;;;;;;-5.12;86.80;100043.13;10637376;27;20035;-74
2022/12/08 02:47:18;;;;;;;8.18;4.50;;;;;;;-5.09;86.04;100038.22;10632974;27;20054;-76
2022/12/08 02:52:20;;;;;;;10.30;5.13;;;;;;;-5.07;86.00;100027.31;10637790;27;20035;-76
2022/12/08 02:57:37;;;;;;;8.23;4.78;;;;;;;-5.04;86.03;100035.75;10631213;27;20039;-76
2022/12/08 03:03:04;;;;;;;6.20;3.70;;;;;;;-5.03;87.02;100044.63;10652541;27;20059;-76
2022/12/08 03:08:19;;;;;;;9.48;5.00;;;;;;;-5.01;86.83;100039.94;10638453;27;20055;-76
2022/12/08 03:13:43;;;;;;;9.20;5.03;;;;;;;-4.94;86.38;100040.78;10620957;27;20031;-76
2022/12/08 03:18:52;;;;;;;12.18;4.85;;;;;;;-4.91;86.35;100041.22;10638363;27;20046;-76
2022/12/08 03:23:56;;;;;;;10.38;4.65;;;;;;;-4.92;86.53;100030.72;10577345;28;20495;-76
2022/12/08 03:28:58;;;;;;;10.75;5.57;;;;;;;-4.91;86.24;100040.41;10600489;27;20054;-76
2022/12/08 03:34:01;;;;;;;9.93;4.95;;;;;;;-4.92;85.85;100036.88;10598125;28;20560;-77
2022/12/08 03:39:03;;;;;;;7.28;3.03;;;;;;;-4.92;85.93;100028.03;10586280;28;20055;-75
2022/12/08 03:44:06;;;;;;;7.15;4.30;;;;;;;-4.90;86.26;100034.03;10647913;27;20047;-77
2022/12/08 03:49:08;;;;;;;3.38;2.38;;;;;;;-4.92;86.69;100028.03;10647474;27;20035;-75
2022/12/08 03:54:10;;;;;;;6.70;3.55;;;;;;;-4.93;86.76;100027.22;10592948;28;20414;-75
2022/12/08 03:59:12;;;;;;;4.90;3.15;;;;;;;-4.93;86.57;100018.38;10626199;27;20035;-74
2022/12/08 04:04:14;;;;;;;8.15;4.97;;;;;;;-4.92;86.06;100009.31;10614646;27;20528;-75
2022/12/08 04:09:17;;;;;;;6.22;3.75;;;;;;;-4.93;86.08;99999.63;10611616;28;20040;-76
2022/12/08 04:14:19;;;;;;;5.95;2.83;;;;;;;-4.93;86.60;99996.97;10613614;28;20051;-75
2022/12/08 04:19:21;;;;;;;5.55;2.90;;;;;;;-4.90;86.15;99993.88;10621237;27;20054;-74
2022/12/08 04:24:23;;;;;;;7.50;3.80;;;;;;;-4.88;86.24;99991.84;10654264;27;20412;-74
2022/12/08 04:29:25;;;;;;;4.63;3.10;;;;;;;-4.89;85.80;99996.34;10656002;27;20050;-78
2022/12/08 04:34:28;;;;;;;8.93;4.10;;;;;;;-4.90;85.41;99993.88;10597111;27;20059;-76
2022/12/08 04:39:30;;;;;;;7.07;3.10;;;;;;;-4.86;85.19;99989.78;10611408;27;20040;-77
2022/12/08 04:44:32;;;;;;;7.93;3.92;;;;;;;-4.86;85.16;99984.44;10569592;28;20054;-75
2022/12/08 04:49:34;;;;;;;4.50;2.63;;;;;;;-4.89;85.09;99987.50;10575860;27;20032;-77
2022/12/08 04:54:36;;;;;;;4.40;2.80;;;;;;;-4.91;85.15;99976.19;10606106;27;20536;-76
2022/12/08 04:59:38;;;;;;;10.63;4.90;;;;;;;-4.93;85.84;99984.41;10611198;28;20051;-75
2022/12/08 05:04:40;;;;;;;5.82;3.22;;;;;;;-4.92;85.57;99969.19;10630557;27;20417;-76
2022/12/08 05:09:43;;;;;;;9.63;4.75;;;;;;;-4.93;85.49;99971.03;10613761;27;20039;-76
2022/12/08 05:14:47;;;;;;;10.52;4.75;;;;;;;-4.93;85.14;99975.56;10597570;27;20448;-76
2022/12/08 05:19:49;;;;;;;8.10;3.45;;;;;;;-4.92;85.38;99967.31;10652857;27;20038;-76
2022/12/08 05:24:51;;;;;;;5.47;3.47;;;;;;;-4.95;85.29;99965.06;10649535;27;20062;-77
2022/12/08 05:29:53;;;;;;;7.72;4.63;;;;;;;-4.99;85.02;99952.28;10608021;28;20044;-77
2022/12/08 05:34:55;;;;;;;6.93;3.65;;;;;;;-5.01;84.45;99955.16;10611591;28;20362;-75
2022/12/08 05:39:57;;;;;;;7.05;3.78;;;;;;;-5.03;84.63;99962.53;10593842;28;20032;-75
2022/12/08 05:45:00;;;;;;;4.82;2.80;;;;;;;-5.04;83.88;99954.69;10606685;28;20409;-75
2022/12/08 05:50:02;;;;;;;7.78;3.78;;;;;;;-5.04;84.65;99960.03;10605955;28;20047;-75
2022/12/08 05:55:05;;;;;;;3.70;3.15;;;;;;;-5.13;85.27;99962.06;10563331;28;20044;-76
2022/12/08 06:00:08;;;;;;;7.18;2.88;;;;;;;-5.22;86.58;99973.91;10598147;28;20040;-76
2022/12/08 06:05:13;;;;;;;4.65;3.03;;;;;;;-5.24;86.67;99960.75;10586550;28;20429;-75
2022/12/08 06:10:16;;;;;;;8.98;5.35;;;;;;;-5.29;87.08;99979.22;10590891;28;20043;-76
2022/12/08 06:15:18;;;;;;;10.43;4.72;;;;;;;-5.33;87.69;99969.94;10567922;28;20048;-76
2022/12/08 06:20:20;;;;;;;6.13;3.83;;;;;;;-5.35;87.57;99985.38;10606873;28;20035;-75
2022/12/08 06:25:23;;;;;;;7.60;3.95;;;;;;;-5.35;87.40;99968.50;10594735;28;20425;-75
2022/12/08 06:30:27;;;;;;;5.75;3.50;;;;;;;-5.32;87.84;99968.94;10610470;28;20039;-75
2022/12/08 06:35:29;;;;;;;5.25;2.80;;;;;;;-5.33;87.36;99971.78;10619504;27;20425;-75
2022/12/08 06:40:31;;;;;;;6.70;4.05;;;;;;;-5.33;87.23;99988.66;10618056;28;20040;-75
2022/12/08 06:45:33;;;;;;;6.65;3.78;;;;;;;-5.33;87.52;99972.63;10612906;27;20036;-75
2022/12/08 06:50:36;;;;;;;6.97;3.85;;;;;;;-5.37;87.40;99958.00;10610793;27;20043;-75
2022/12/08 06:55:45;;;;;;;4.43;3.05;;;;;;;-5.40;87.97;99958.38;10556025;28;20553;-76
2022/12/08 07:00:47;;;;;;;2.28;1.45;;;;;;;-5.41;87.61;99955.88;10584781;27;20069;-76
2022/12/08 07:05:54;;;;;;;8.02;4.70;;;;;;;-5.40;87.69;99969.06;10574866;27;20059;-76
2022/12/08 07:10:57;;;;;;;4.97;2.70;;;;;;;-5.42;88.10;99960.41;10590910;27;20046;-77
2022/12/08 07:15:59;;;;;;;5.30;3.33;;;;;;;-5.41;88.17;99971.91;10612440;27;20039;-77
2022/12/08 07:21:03;;;;;;;8.27;4.15;;;;;;;-5.41;88.44;99964.72;10614957;27;20043;-77
2022/12/08 07:26:08;;;;;;;9.13;4.97;;;;;;;-5.43;88.15;99980.13;10599098;27;20517;-75
2022/12/08 07:31:19;;;;;;;11.57;5.68;;;;;;;-5.44;88.60;99973.16;10597697;27;20043;-75
2022/12/08 07:36:23;;;;;;;5.07;4.03;;;;;;;-5.44;88.34;99967.78;10617150;27;20055;-75
2022/12/08 07:41:25;;;;;;;4.63;2.97;;;;;;;-5.45;88.56;99968.81;10599926;28;20044;-75
2022/12/08 07:46:27;;;;;;;6.68;3.40;;;;;;;-5.43;88.53;99988.16;10593410;27;20490;-75
2022/12/08 07:51:30;;;;;;;4.53;3.08;;;;;;;-5.48;88.74;99964.69;10573789;27;20040;-75
2022/12/08 07:56:57;;;;;;;5.60;3.45;;;;;;;-5.44;87.94;99966.97;10571971;28;20048;-75
2022/12/08 08:01:59;;;;;;;10.65;4.05;;;;;;;-5.42;88.17;99975.63;10570891;28;20044;-75
2022/12/08 08:07:01;;;;;;;4.25;3.00;;;;;;;-5.43;87.85;99977.47;10572203;28;20059;-75
2022/12/08 08:12:04;;;;;;;4.65;2.47;;;;;;;-5.40;87.85;99962.88;10570098;28;20040;-75
2022/12/08 08:17:10;;;;;;;5.15;2.72;;;;;;;-5.37;87.63;99968.69;10571368;28;20051;-75
2022/12/08 08:22:12;;;;;;;4.95;3.00;;;;;;;-5.35;87.74;99953.28;10572022;28;20466;-75
2022/12/08 08:27:19;;;;;;;12.25;3.67;;;;;;;-5.33;87.46;99971.78;10571066;28;20134;-75
2022/12/08 08:32:25;;;;;;;6.43;3.58;;;;;;;-5.33;88.10;99948.56;10593627;28;20048;-75
2022/12/08 08:37:31;;;;;;;5.47;3.45;;;;;;;-5.26;87.81;99944.06;10612657;28;20051;-76
2022/12/08 08:42:33;;;;;;;6.57;4.00;;;;;;;-5.25;87.01;99950.25;10612132;28;20043;-75
2022/12/08 08:47:39;;;;;;;4.05;2.08;;;;;;;-5.20;87.24;99937.13;10606114;28;20056;-76
2022/12/08 08:52:46;;;;;;;7.15;3.35;;;;;;;-5.18;86.92;99943.09;10600809;28;20044;-75
2022/12/08 08:57:48;;;;;;;6.03;3.78;;;;;;;-5.18;87.39;99938.59;10554573;28;20044;-75
2022/12/08 09:02:54;;;;;;;1.20;1.15;;;;;;;-5.15;86.90;99937.34;10552503;28;20055;-75
2022/12/08 09:07:56;;;;;;;2.83;2.10;;;;;;;-5.12;87.03;99930.78;10592346;28;20506;-75
2022/12/08 09:12:59;;;;;;;9.73;5.40;;;;;;;-5.10;87.07;99936.75;10612755;28;20039;-75
2022/12/08 09:18:02;;;;;;;5.95;2.97;;;;;;;-5.10;86.72;99928.75;10612176;28;20506;-75
2022/12/08 09:23:05;;;;;;;9.43;5.07;;;;;;;-5.07;86.73;99926.50;10594483;28;20042;-74
2022/12/08 09:28:07;;;;;;;2.75;2.33;;;;;;;-5.06;87.08;99936.16;10611940;28;20066;-76
2022/12/08 09:33:10;;;;;;;8.18;5.47;;;;;;;-5.08;87.11;99934.72;10612146;28;20063;-76
2022/12/08 09:38:16;;;;;;;2.28;2.08;;;;;;;-5.09;87.06;99922.38;10612139;28;20054;-75
2022/12/08 09:43:40;;;;;;;5.60;3.00;;;;;;;-5.07;87.01;99914.97;10598272;28;20052;-74
2022/12/08 09:48:54;;;;;;;5.95;3.00;;;;;;;-5.05;87.29;99927.13;10569094;28;20506;-76
2022/12/08 09:54:06;;;;;;;4.90;3.50;;;;;;;-5.06;88.22;99905.91;10550527;28;20039;-76
2022/12/08 09:59:30;;;;;;;6.00;2.92;;;;;;;-5.04;87.48;99911.88;10550267;28;20044;-75
2022/12/08 10:04:36;;;;;;;3.95;2.67;;;;;;;-5.03;87.39;99908.19;10532855;28;20031;-75
2022/12/08 10:10:30;;;;;;;10.98;4.03;;;;;;;-4.97;87.11;99915.44;10561805;28;20415;-76
2022/12/08 10:15:51;;;;;;;9.18;4.85;;;;;;;-4.94;87.53;99907.00;10445893;28;20056;-75
2022/12/08 10:20:57;;;;;;;7.05;4.05;;;;;;;-4.95;87.10;99902.69;10555118;28;20083;-75
2022/12/08 10:26:01;;;;;;;6.95;3.83;;;;;;;-4.94;87.38;99917.72;10541078;28;20542;-75
2022/12/08 10:31:03;;;;;;;8.45;4.18;;;;;;;-4.97;87.30;99912.78;10574789;28;20036;-75
2022/12/08 10:36:06;;;;;;;10.38;4.30;;;;;;;-4.99;88.05;99931.69;10574872;28;20498;-75
2022/12/08 10:41:09;;;;;;;6.65;3.90;;;;;;;-5.02;88.24;99900.00;10540310;28;20059;-75
2022/12/08 10:46:12;;;;;;;9.07;3.90;;;;;;;-5.04;88.37;99903.88;10574801;28;20044;-75
2022/12/08 10:51:41;;;;;;;6.43;3.72;;;;;;;-5.04;88.45;99910.03;10591307;28;20047;-75
2022/12/08 10:56:52;;;;;;;5.43;3.97;;;;;;;-5.03;88.31;99902.84;10613850;28;20055;-75
2022/12/08 11:01:56;;;;;;;10.43;5.13;;;;;;;-5.04;88.97;99911.88;10616867;28;20043;-75
2022/12/08 11:06:58;;;;;;;6.93;3.97;;;;;;;-5.05;88.44;99904.88;10616136;28;20399;-75
2022/12/08 11:12:14;;;;;;;6.90;3.92;;;;;;;-5.04;88.65;99906.53;10581214;28;20074;-75
2022/12/08 11:17:23;;;;;;;5.47;3.75;;;;;;;-5.07;89.26;99893.56;10597294;28;20046;-75
2022/12/08 11:22:30;;;;;;;10.25;4.57;;;;;;;-5.11;89.67;99898.50;10597567;28;20158;-75
2022/12/08 11:27:34;;;;;;;7.90;4.13;;;;;;;-5.18;90.46;99901.13;10615612;28;20044;-75
2022/12/08 11:32:40;;;;;;;7.38;4.30;;;;;;;-5.22;90.55;99883.00;10615943;28;20060;-76
2022/12/08 11:37:42;;;;;;;7.18;4.25;;;;;;;-5.22;91.09;99886.50;10615310;28;20426;-75
2022/12/08 11:42:54;;;;;;;6.35;2.33;;;;;;;-5.22;91.24;99893.69;10596982;28;20459;-75
2022/12/08 11:48:13;;;;;;;5.00;2.45;;;;;;;-5.22;91.35;99880.31;10614984;28;20043;-76
2022/12/08 11:53:29;;;;;;;4.90;3.03;;;;;;;-5.21;91.79;99884.63;10579937;28;20046;-75
2022/12/08 11:58:41;;;;;;;2.63;2.42;;;;;;;-5.21;91.78;99884.63;10618069;27;20043;-75
2022/12/08 12:04:06;;;;;;;2.72;1.35;;;;;;;-5.21;91.74;99882.81;10580425;28;20073;-75
2022/12/08 12:09:37;;;;;;;8.05;4.25;;;;;;;-5.20;92.02;99880.97;10560971;28;20528;-75
2022/12/08 12:15:17;;;;;;;4.43;2.70;;;;;;;-5.22;92.02;99867.78;10621208;27;20485;-75
2022/12/08 12:20:43;;;;;;;5.32;2.92;;;;;;;-5.20;91.93;99871.09;10639033;27;20506;-75
2022/12/08 12:26:05;;;;;;;7.03;3.15;;;;;;;-5.21;92.45;99869.44;10616458;27;20035;-75
2022/12/08 12:31:14;;;;;;;5.32;3.30;;;;;;;-5.20;92.68;99865.75;10576511;27;20044;-74
2022/12/08 12:36:17;;;;;;;9.38;4.15;;;;;;;-5.19;92.35;99859.38;10642018;27;20055;-74
2022/12/08 12:41:27;;;;;;;2.92;1.98;;;;;;;-5.18;92.51;99858.34;10630003;27;20042;-73
2022/12/08 12:46:40;;;;;;;2.25;2.05;;;;;;;-5.20;92.82;99875.63;10636620;27;20039;-75
2022/12/08 12:51:46;;;;;;;9.90;4.78;;;;;;;-5.23;92.53;99876.00;10626779;27;20043;-76
2022/12/08 12:57:15;;;;;;;5.85;2.28;;;;;;;-5.24;92.30;99875.16;10614992;27;20050;-75
2022/12/08 13:02:26;;;;;;;6.35;3.40;;;;;;;-5.24;92.16;99863.66;10626517;27;20050;-75
2022/12/08 13:07:40;;;;;;;1.95;1.77;;;;;;;-5.26;92.53;99850.47;10636174;27;20040;-76
2022/12/08 13:13:01;;;;;;;4.38;2.70;;;;;;;-5.27;92.53;99859.53;10604346;28;20050;-76
2022/12/08 13:18:15;;;;;;;3.72;2.70;;;;;;;-5.28;91.99;99871.25;10608148;27;20563;-76
2022/12/08 13:23:25;;;;;;;4.18;2.90;;;;;;;-5.25;91.81;99867.34;10613246;27;20042;-74
2022/12/08 13:28:29;;;;;;;6.40;2.85;;;;;;;-5.25;92.00;99875.38;10642607;27;20036;-72
2022/12/08 13:33:39;;;;;;;6.35;3.30;;;;;;;-5.26;92.10;99868.38;10627233;27;20044;-75
2022/12/08 13:38:43;;;;;;;6.20;2.92;;;;;;;-5.25;92.22;99857.47;10609760;28;20051;-73
2022/12/08 13:44:21;;;;;;;5.78;3.67;;;;;;;-5.23;91.64;99855.44;10584232;27;20053;-72
2022/12/08 13:49:28;;;;;;;2.55;1.23;;;;;;;-5.19;92.05;99853.22;10590508;27;20043;-81
2022/12/08 13:54:33;;;;;;;5.00;2.65;;;;;;;-5.18;91.94;99858.34;10583945;27;20043;-81
2022/12/08 13:59:42;;;;;;;3.28;2.35;;;;;;;-5.18;91.75;99861.03;10629386;27;20051;-81
2022/12/08 14:04:48;;;;;;;6.00;3.63;;;;;;;-5.18;91.89;99857.53;10603234;27;20028;-83
2022/12/08 14:09:51;;;;;;;2.80;2.22;;;;;;;-5.20;91.92;99860.41;10617246;27;20051;-80
2022/12/08 14:15:04;;;;;;;4.97;2.97;;;;;;;-5.16;91.54;99864.31;10610078;27;20043;-84
2022/12/08 14:20:26;;;;;;;7.22;3.47;;;;;;;-5.11;91.29;99862.91;10595427;27;20485;-78
2022/12/08 14:25:34;;;;;;;1.90;1.20;;;;;;;-5.05;91.54;99862.09;10593287;27;20036;-84
2022/12/08 14:30:37;;;;;;;8.15;4.18;;;;;;;-5.02;91.26;99857.19;10586913;28;20061;-82
2022/12/08 14:35:39;;;;;;;3.83;2.85;;;;;;;-5.00;91.51;99846.28;10616165;27;20521;-85
2022/12/08 14:40:44;;;;;;;3.55;1.88;;;;;;;-4.99;91.72;99853.28;10596264;27;20051;-84
2022/12/08 14:45:49;;;;;;;10.13;4.85;;;;;;;-4.96;91.44;99845.69;10614763;27;20697;-83
2022/12/08 14:50:58;;;;;;;5.35;3.25;;;;;;;-4.92;90.98;99848.78;10576687;27;20090;-80
2022/12/08 14:56:00;;;;;;;;;;;;;;;-4.89;91.23;99848.38;10628402;27;20345;-80
2022/12/08 15:01:05;;;;;;;6.15;3.58;;;;;;;-4.88;91.55;99848.16;10605026;28;20158;-80
2022/12/08 15:06:08;;;;;;;5.40;3.47;;;;;;;-4.89;91.93;99840.34;10557542;28;20040;-80
2022/12/08 15:11:25;;;;;;;6.20;3.47;;;;;;;-4.87;92.11;99849.00;10586323;28;20046;-80
2022/12/08 15:16:38;;;;;;;11.77;5.45;;;;;;;-4.83;92.07;99852.13;10597989;28;20048;-83
2022/12/08 15:21:40;;;;;;;13.93;6.30;;;;;;;-4.76;91.81;99850.28;10616799;28;20058;-83
2022/12/08 15:26:45;;;;;;;13.82;5.78;;;;;;;-4.75;92.06;99852.75;10604859;27;20055;-83
2022/12/08 15:31:48;;;;;;;11.90;6.15;;;;;;;-4.72;91.96;99848.84;10603962;27;20058;-83
2022/12/08 15:36:52;;;;;;;8.57;5.32;;;;;;;-4.69;91.79;99846.56;10611246;28;20505;-83
2022/12/08 15:41:54;;;;;;;9.88;5.43;;;;;;;-4.63;91.85;99845.78;10611114;28;20055;-83
2022/12/08 15:46:57;;;;;;;10.40;5.65;;;;;;;-4.59;92.21;99841.69;10610205;28;20044;-83
2022/12/08 15:51:59;;;;;;;11.77;7.35;;;;;;;-4.56;91.88;99846.63;10610831;28;20040;-84
2022/12/08 15:57:02;;;;;;;11.38;5.95;;;;;;;-4.51;91.63;99839.81;10610292;28;20059;-83
2022/12/08 16:02:04;;;;;;;10.50;6.43;;;;;;;-4.48;92.07;99826.06;10612017;28;20070;-83
2022/12/08 16:07:14;;;;;;;10.98;5.68;;;;;;;-4.45;91.78;99825.66;10607013;28;20893;-84
2022/12/08 16:17:40;;;;;;;12.32;5.50;;;;;;;-4.36;92.44;99829.75;10636188;28;20054;-84
2022/12/08 16:22:43;;;;;;;15.02;6.00;;;;;;;-4.34;92.63;99820.53;10636860;28;20050;-83
2022/12/08 16:27:47;;;;;;;11.10;6.53;;;;;;;-4.32;92.59;99826.50;10649153;27;20489;-84
2022/12/08 16:32:49;;;;;;;10.70;6.13;;;;;;;-4.29;92.72;99825.25;10619096;28;20047;-83
2022/12/08 16:37:51;;;;;;;12.75;7.20;;;;;;;-4.24;93.07;99817.41;10591461;28;20047;-84
2022/12/08 16:42:54;;;;;;;11.90;7.03;;;;;;;-4.22;93.36;99812.69;10610576;28;20038;-84
2022/12/08 16:47:59;;;;;;;14.85;6.63;;;;;;;-4.18;93.45;99805.88;10610382;28;20051;-85
2022/12/08 16:53:06;;;;;;;13.15;6.57;;;;;;;-4.06;93.10;99827.53;10611075;28;20036;-83
2022/12/08 16:58:08;;;;;;;9.15;6.60;;;;;;;-4.05;93.49;99813.91;10609907;28;20039;-84
2022/12/08 17:03:13;;;;;;;9.88;5.65;;;;;;;-4.01;93.77;99817.00;10600051;27;20031;-83
2022/12/08 17:08:15;;;;;;;11.02;6.30;;;;;;;-3.98;93.48;99812.09;10613094;27;20039;-83
2022/12/08 17:13:17;;;;;;;11.05;5.95;;;;;;;-3.95;93.55;99805.47;10598837;28;20109;-84
2022/12/08 17:18:19;;;;;;;9.25;5.65;;;;;;;-3.95;94.04;99814.34;10622279;27;20505;-86
2022/12/08 17:23:22;;;;;;;10.10;6.35;;;;;;;-3.91;93.97;99824.66;10604279;28;20042;-79
2022/12/08 17:28:24;;;;;;;14.23;6.70;;;;;;;-3.91;94.03;99817.44;10623265;27;20051;-78
2022/12/08 17:33:26;;;;;;;10.27;6.35;;;;;;;-3.90;93.76;99804.84;10618842;28;20390;-85
2022/12/08 17:38:29;;;;;;;10.80;6.60;;;;;;;-3.88;94.17;99824.22;10619272;27;20061;-84
2022/12/08 17:43:32;;;;;;;13.57;6.88;;;;;;;-3.88;94.34;99813.50;10627140;28;20040;-81
2022/12/08 17:48:34;;;;;;;10.75;6.57;;;;;;;-3.83;94.23;99803.78;10620758;28;20153;-83
2022/12/08 17:53:39;;;;;;;11.45;7.47;;;;;;;-3.80;94.74;99816.81;10619915;28;20031;-81
2022/12/08 17:58:41;;;;;;;13.07;7.80;;;;;;;-3.80;94.69;99822.16;10620524;28;20058;-82
2022/12/08 18:03:43;;;;;;;10.52;5.60;;;;;;;-3.80;94.44;99819.50;10601423;28;20050;-82
2022/12/08 18:08:45;;;;;;;11.52;7.28;;;;;;;-3.77;94.84;99824.44;10603159;28;20046;-83
2022/12/08 18:13:49;;;;;;;10.55;6.82;;;;;;;-3.73;94.67;99820.28;10611611;28;20040;-82
2022/12/08 18:18:51;;;;;;;11.07;7.38;;;;;;;-3.70;95.31;99837.81;10610732;28;20047;-83
2022/12/08 18:23:53;;;;;;;11.73;7.15;;;;;;;-3.70;95.28;99827.91;10626162;28;20050;-82
2022/12/08 18:28:56;;;;;;;12.65;7.32;;;;;;;-3.62;96.05;99839.47;10630077;27;20046;-82
2022/12/08 18:33:58;;;;;;;11.45;6.65;;;;;;;-3.61;95.71;99839.25;10627361;27;20043;-82
2022/12/08 18:39:01;;;;;;;12.20;6.75;;;;;;;-3.59;96.09;99836.38;10585258;27;20043;-81
2022/12/08 18:44:03;;;;;;;11.52;6.72;;;;;;;-3.54;96.15;99839.22;10638871;27;20046;-83
2022/12/08 18:49:11;;;;;;;11.13;6.90;;;;;;;-3.50;96.13;99841.28;10623166;27;20046;-80
2022/12/08 18:54:13;;;;;;;12.13;6.80;;;;;;;-3.46;96.12;99842.53;10627328;27;20046;-83
2022/12/08 18:59:15;;;;;;;12.18;7.10;;;;;;;-3.41;96.27;99844.56;10618709;27;20047;-86
2022/12/08 19:04:17;;;;;;;11.65;6.18;;;;;;;-3.37;96.15;99849.31;10628630;27;20124;-82
2022/12/08 19:09:20;;;;;;;8.80;6.13;;;;;;;-3.26;96.37;99857.75;10620513;27;20047;-83
2022/12/08 19:14:51;;;;;;;13.88;6.40;;;;;;;-3.20;96.33;99868.47;10614044;27;20044;-80
2022/12/08 19:19:57;;;;;;;9.63;5.85;;;;;;;-3.12;96.27;99880.84;10649717;27;20054;-86
2022/12/08 19:25:00;;;;;;;10.40;6.00;;;;;;;-3.06;96.66;99885.34;10636586;27;20058;-81
2022/12/08 19:30:07;;;;;;;9.27;5.35;;;;;;;-2.99;96.31;99896.06;10629643;28;20066;-79
2022/12/08 19:35:13;;;;;;;11.20;5.93;;;;;;;-2.94;96.83;99907.81;10609366;27;20052;-77
2022/12/08 19:45:37;;;;;;;10.52;5.47;;;;;;;-2.81;96.67;99912.31;10619882;27;20048;-80
2022/12/08 19:50:43;;;;;;;10.07;5.80;;;;;;;-2.80;96.63;99920.16;10628875;27;20054;-79
2022/12/08 19:55:46;;;;;;;9.88;5.80;;;;;;;-2.74;96.65;99930.06;10634268;27;20051;-79
2022/12/08 20:00:52;;;;;;;9.65;5.63;;;;;;;-2.66;96.53;99931.66;10639209;27;20035;-81
2022/12/08 20:05:54;;;;;;;7.63;4.70;;;;;;;-2.59;96.57;99935.16;10644990;27;20027;-80
2022/12/08 20:10:58;;;;;;;9.90;5.00;;;;;;;-2.54;96.30;99945.28;10648440;27;20039;-78
2022/12/08 20:16:29;;;;;;;7.72;4.78;;;;;;;-2.51;96.17;99963.63;10632310;27;20066;-78
2022/12/08 20:21:32;;;;;;;6.72;4.40;;;;;;;-2.50;96.56;99984.09;10602921;28;20036;-79
2022/12/08 20:26:34;;;;;;;4.68;3.35;;;;;;;-2.52;96.75;99989.69;10621871;27;20042;-79
2022/12/08 20:31:37;;;;;;;6.38;3.90;;;;;;;-2.55;96.59;100000.84;10619389;28;20043;-77
2022/12/08 20:36:39;;;;;;;6.72;3.75;;;;;;;-2.53;96.75;100014.06;10629630;27;20525;-77
2022/12/08 20:41:45;;;;;;;3.45;2.90;;;;;;;-2.51;97.05;100022.72;10630321;27;20043;-77
2022/12/08 20:46:51;;;;;;;3.85;2.72;;;;;;;-2.51;97.38;100023.56;10589194;27;20039;-78
2022/12/08 20:51:57;;;;;;;3.38;2.63;;;;;;;-2.46;97.43;100044.41;10621106;27;20491;-77
2022/12/08 20:57:24;;;;;;;3.30;2.60;;;;;;;-2.42;97.71;100045.66;10579262;28;20062;-78
2022/12/08 21:02:26;;;;;;;3.30;2.22;;;;;;;-2.41;97.71;100054.53;10617115;27;20040;-82
2022/12/08 21:07:29;;;;;;;2.90;2.45;;;;;;;-2.38;97.99;100065.69;10608251;27;20502;-81
2022/12/08 21:12:31;;;;;;;3.75;2.50;;;;;;;-2.36;98.15;100070.84;10567495;28;20143;-81
2022/12/08 21:17:33;;;;;;;2.97;2.55;;;;;;;-2.38;97.94;100076.44;10608937;28;20056;-82
2022/12/08 21:22:35;;;;;;;4.70;2.80;;;;;;;-2.39;98.53;100087.41;10618220;27;20498;-81
2022/12/08 21:27:38;;;;;;;2.95;2.65;;;;;;;-2.41;98.27;100103.72;10614874;27;20039;-80
2022/12/08 21:32:40;;;;;;;3.83;2.72;;;;;;;-2.45;98.86;100122.09;10626665;28;20073;-79
2022/12/08 21:37:42;;;;;;;3.00;2.53;;;;;;;-2.49;98.67;100128.94;10625736;28;20527;-77
2022/12/08 21:42:44;;;;;;;5.75;3.10;;;;;;;-2.52;98.53;100132.03;10613673;28;20040;-77
2022/12/08 21:47:48;;;;;;;3.63;2.92;;;;;;;-2.54;98.50;100136.78;10629215;28;20065;-78
2022/12/08 21:52:50;;;;;;;3.30;2.83;;;;;;;-2.59;98.65;100151.91;10635782;28;20043;-76
2022/12/08 21:57:52;;;;;;;3.08;2.58;;;;;;;-2.61;98.20;100157.44;10614831;28;20140;-78
2022/12/08 22:02:54;;;;;;;3.38;2.10;;;;;;;-2.63;97.52;100181.00;10635845;27;20031;-78
2022/12/08 22:07:57;;;;;;;3.65;2.08;;;;;;;-2.63;96.34;100188.22;10622354;27;20043;-80
2022/12/08 22:12:59;;;;;;;4.65;2.70;;;;;;;-2.63;95.17;100191.75;10652514;27;20035;-79
2022/12/08 22:18:02;;;;;;;4.15;3.13;;;;;;;-2.63;94.19;100196.28;10623628;27;20138;-77
2022/12/08 22:23:04;;;;;;;3.03;2.45;;;;;;;-2.64;93.42;100200.84;10617172;27;20050;-82
2022/12/08 22:28:06;;;;;;;4.32;3.00;;;;;;;-2.66;92.45;100210.13;10587198;28;20342;-79
2022/12/08 22:33:08;;;;;;;2.83;2.30;;;;;;;-2.67;91.35;100217.38;10594282;28;20036;-76
2022/12/08 22:38:10;;;;;;;4.13;2.40;;;;;;;-2.66;91.10;100237.00;10562873;28;20054;-78
2022/12/08 22:43:13;;;;;;;2.30;1.92;;;;;;;-2.69;90.69;100242.78;10550729;28;20418;-78
2022/12/08 22:48:15;;;;;;;2.47;2.08;;;;;;;-2.75;90.78;100261.38;10567040;28;20051;-78
2022/12/08 22:53:17;;;;;;;3.03;2.38;;;;;;;-2.81;90.84;100278.28;10539462;28;20051;-78
2022/12/08 22:58:21;;;;;;;3.97;2.17;;;;;;;-2.88;90.24;100293.53;10567096;28;20138;-78
2022/12/08 23:03:23;;;;;;;2.60;1.90;;;;;;;-2.93;90.35;100281.78;10574967;28;20399;-78
2022/12/08 23:08:25;;;;;;;3.42;1.65;;;;;;;-2.97;90.48;100292.06;10555156;28;20051;-79
2022/12/08 23:13:28;;;;;;;2.35;1.77;;;;;;;-3.02;91.01;100305.25;10569459;28;20413;-78
2022/12/08 23:18:30;;;;;;;2.30;1.50;;;;;;;-3.09;90.83;100310.63;10554634;28;20047;-78
2022/12/08 23:23:33;;;;;;;2.25;1.92;;;;;;;-3.12;91.29;100313.72;10573293;28;20549;-78
2022/12/08 23:28:36;;;;;;;2.20;1.50;;;;;;;-3.13;91.72;100330.81;10563144;28;20036;-78
2022/12/08 23:33:38;;;;;;;2.90;1.75;;;;;;;-3.13;91.68;100340.72;10585432;28;20050;-78
2022/12/08 23:38:40;;;;;;;2.63;1.75;;;;;;;-3.14;91.64;100344.44;10582470;28;20044;-78
2022/12/08 23:43:48;;;;;;;2.45;1.60;;;;;;;-3.15;92.01;100348.13;10597656;28;20051;-78
2022/12/08 23:48:50;;;;;;;2.13;1.60;;;;;;;-3.19;91.90;100347.72;10607405;28;20039;-79
2022/12/08 23:53:52;;;;;;;2.10;1.40;;;;;;;-3.19;92.06;100357.63;10612379;28;20046;-78